sensor_id;sensor_type;location;lat;lon;timestamp;temperature;humidity
7844;DHT22;3967;48.702;9.326;2023-08-17T00:02:12;21.90;99.90
7844;DHT22;3967;48.702;9.326;2023-08-17T00:04:40;21.90;99.90
7844;DHT22;3967;48.702;9.326;2023-08-17T00:07:07;21.90;99.90
7844;DHT22;3967;48.702;9.326;2023-08-17T00:09:33;21.80;99.90
7844;DHT22;3967;48.702;9.326;2023-08-17T00:12:00;21.70;99.90
7844;DHT22;3967;48.702;9.326;2023-08-17T00:14:28;21.80;99.90
7844;DHT22;3967;48.702;9.326;2023-08-17T00:16:55;21.80;99.90
7844;DHT22;3967;48.702;9.326;2023-08-17T00:19:21;21.70;99.90
7844;DHT22;3967;48.702;9.326;2023-08-17T00:21:48;21.80;99.90
7844;DHT22;3967;48.702;9.326;2023-08-17T00:24:15;21.80;99.90
7844;DHT22;3967;48.702;9.326;2023-08-17T00:26:41;22.00;99.90
7844;DHT22;3967;48.702;9.326;2023-08-17T00:29:08;21.90;99.90
7844;DHT22;3967;48.702;9.326;2023-08-17T00:31:35;21.90;99.90
7844;DHT22;3967;48.702;9.326;2023-08-17T00:34:02;22.00;99.90
7844;DHT22;3967;48.702;9.326;2023-08-17T00:36:28;22.00;99.90
7844;DHT22;3967;48.702;9.326;2023-08-17T00:38:55;22.00;99.90
7844;DHT22;3967;48.702;9.326;2023-08-17T00:41:22;22.00;99.90
7844;DHT22;3967;48.702;9.326;2023-08-17T00:43:48;21.90;99.90
7844;DHT22;3967;48.702;9.326;2023-08-17T00:46:15;22.00;99.90
7844;DHT22;3967;48.702;9.326;2023-08-17T00:48:42;22.00;99.90
7844;DHT22;3967;48.702;9.326;2023-08-17T00:51:09;21.80;99.90
7844;DHT22;3967;48.702;9.326;2023-08-17T00:53:37;21.80;99.90
7844;DHT22;3967;48.702;9.326;2023-08-17T00:56:04;21.80;99.90
7844;DHT22;3967;48.702;9.326;2023-08-17T00:58:31;21.70;99.90
7844;DHT22;3967;48.702;9.326;2023-08-17T01:00:58;21.70;99.90
7844;DHT22;3967;48.702;9.326;2023-08-17T01:03:28;21.70;99.90
7844;DHT22;3967;48.702;9.326;2023-08-17T01:05:54;21.70;99.90
7844;DHT22;3967;48.702;9.326;2023-08-17T01:08:21;21.80;99.90
7844;DHT22;3967;48.702;9.326;2023-08-17T01:16:01;21.60;99.90
7844;DHT22;3967;48.702;9.326;2023-08-17T01:18:32;21.70;99.90
7844;DHT22;3967;48.702;9.326;2023-08-17T01:21:00;21.80;99.90
7844;DHT22;3967;48.702;9.326;2023-08-17T01:23:27;21.80;99.90
7844;DHT22;3967;48.702;9.326;2023-08-17T01:25:54;21.80;99.90
7844;DHT22;3967;48.702;9.326;2023-08-17T01:28:23;21.80;99.90
7844;DHT22;3967;48.702;9.326;2023-08-17T01:31:02;21.80;99.90
7844;DHT22;3967;48.702;9.326;2023-08-17T01:33:40;21.70;99.90
7844;DHT22;3967;48.702;9.326;2023-08-17T01:38:42;21.80;99.90
7844;DHT22;3967;48.702;9.326;2023-08-17T01:41:11;21.80;99.90
7844;DHT22;3967;48.702;9.326;2023-08-17T01:43:42;21.70;99.90
7844;DHT22;3967;48.702;9.326;2023-08-17T01:46:14;21.60;99.90
7844;DHT22;3967;48.702;9.326;2023-08-17T01:48:44;21.60;99.90
7844;DHT22;3967;48.702;9.326;2023-08-17T01:51:15;21.70;99.90
7844;DHT22;3967;48.702;9.326;2023-08-17T01:53:42;21.60;99.90
7844;DHT22;3967;48.702;9.326;2023-08-17T01:56:09;21.60;99.90
7844;DHT22;3967;48.702;9.326;2023-08-17T01:58:36;21.70;99.90
7844;DHT22;3967;48.702;9.326;2023-08-17T02:01:02;21.70;99.90
7844;DHT22;3967;48.702;9.326;2023-08-17T02:03:29;21.60;99.90
7844;DHT22;3967;48.702;9.326;2023-08-17T02:05:56;21.60;99.90
7844;DHT22;3967;48.702;9.326;2023-08-17T02:08:23;21.60;99.90
7844;DHT22;3967;48.702;9.326;2023-08-17T02:10:50;21.60;99.90
7844;DHT22;3967;48.702;9.326;2023-08-17T02:13:18;21.50;99.90
7844;DHT22;3967;48.702;9.326;2023-08-17T02:15:46;21.60;99.90
7844;DHT22;3967;48.702;9.326;2023-08-17T02:18:13;21.60;99.90
7844;DHT22;3967;48.702;9.326;2023-08-17T02:20:40;21.50;99.90
7844;DHT22;3967;48.702;9.326;2023-08-17T02:23:06;21.40;99.90
7844;DHT22;3967;48.702;9.326;2023-08-17T02:25:33;21.30;99.90
7844;DHT22;3967;48.702;9.326;2023-08-17T02:28:03;21.30;99.90
7844;DHT22;3967;48.702;9.326;2023-08-17T02:30:30;21.30;99.90
7844;DHT22;3967;48.702;9.326;2023-08-17T02:32:57;21.30;99.90
7844;DHT22;3967;48.702;9.326;2023-08-17T02:35:24;21.30;99.90
7844;DHT22;3967;48.702;9.326;2023-08-17T02:37:51;21.30;99.90
7844;DHT22;3967;48.702;9.326;2023-08-17T02:40:17;21.30;99.90
7844;DHT22;3967;48.702;9.326;2023-08-17T02:42:44;21.20;99.90
7844;DHT22;3967;48.702;9.326;2023-08-17T02:45:11;21.20;99.90
7844;DHT22;3967;48.702;9.326;2023-08-17T02:47:38;21.20;99.90
7844;DHT22;3967;48.702;9.326;2023-08-17T02:50:05;21.20;99.90
7844;DHT22;3967;48.702;9.326;2023-08-17T02:52:33;21.20;99.90
7844;DHT22;3967;48.702;9.326;2023-08-17T02:55:00;21.10;99.90
7844;DHT22;3967;48.702;9.326;2023-08-17T02:57:27;21.10;99.90
7844;DHT22;3967;48.702;9.326;2023-08-17T02:59:54;21.10;99.90
7844;DHT22;3967;48.702;9.326;2023-08-17T03:02:20;21.10;99.90
7844;DHT22;3967;48.702;9.326;2023-08-17T03:04:47;21.20;99.90
7844;DHT22;3967;48.702;9.326;2023-08-17T03:07:14;21.20;99.90
7844;DHT22;3967;48.702;9.326;2023-08-17T03:09:40;21.30;99.90
7844;DHT22;3967;48.702;9.326;2023-08-17T03:12:07;21.30;99.90
7844;DHT22;3967;48.702;9.326;2023-08-17T03:14:34;21.30;99.90
7844;DHT22;3967;48.702;9.326;2023-08-17T03:17:01;21.10;99.90
7844;DHT22;3967;48.702;9.326;2023-08-17T03:19:27;21.10;99.90
7844;DHT22;3967;48.702;9.326;2023-08-17T03:21:54;21.10;99.90
7844;DHT22;3967;48.702;9.326;2023-08-17T03:24:21;21.10;99.90
7844;DHT22;3967;48.702;9.326;2023-08-17T03:26:47;21.10;99.90
7844;DHT22;3967;48.702;9.326;2023-08-17T03:29:14;20.90;99.90
7844;DHT22;3967;48.702;9.326;2023-08-17T03:31:41;20.90;99.90
7844;DHT22;3967;48.702;9.326;2023-08-17T03:34:07;21.00;99.90
7844;DHT22;3967;48.702;9.326;2023-08-17T03:36:34;21.00;99.90
7844;DHT22;3967;48.702;9.326;2023-08-17T03:39:01;20.80;99.90
7844;DHT22;3967;48.702;9.326;2023-08-17T03:41:28;21.00;99.90
7844;DHT22;3967;48.702;9.326;2023-08-17T03:43:54;20.90;99.90
7844;DHT22;3967;48.702;9.326;2023-08-17T03:46:21;20.70;99.90
7844;DHT22;3967;48.702;9.326;2023-08-17T03:48:48;20.80;99.90
7844;DHT22;3967;48.702;9.326;2023-08-17T03:51:15;20.80;99.90
7844;DHT22;3967;48.702;9.326;2023-08-17T03:53:41;20.90;99.90
7844;DHT22;3967;48.702;9.326;2023-08-17T03:56:08;20.90;99.90
7844;DHT22;3967;48.702;9.326;2023-08-17T03:58:35;20.90;99.90
7844;DHT22;3967;48.702;9.326;2023-08-17T04:01:01;20.90;99.90
7844;DHT22;3967;48.702;9.326;2023-08-17T04:03:29;21.00;99.90
7844;DHT22;3967;48.702;9.326;2023-08-17T04:05:56;21.00;99.90
7844;DHT22;3967;48.702;9.326;2023-08-17T04:08:23;21.00;99.90
7844;DHT22;3967;48.702;9.326;2023-08-17T04:10:50;21.00;99.90
7844;DHT22;3967;48.702;9.326;2023-08-17T04:13:16;21.00;99.90
7844;DHT22;3967;48.702;9.326;2023-08-17T04:15:43;21.10;99.90
7844;DHT22;3967;48.702;9.326;2023-08-17T04:18:10;20.90;99.90
7844;DHT22;3967;48.702;9.326;2023-08-17T04:20:37;20.90;99.90
7844;DHT22;3967;48.702;9.326;2023-08-17T04:23:03;20.90;99.90
7844;DHT22;3967;48.702;9.326;2023-08-17T04:25:30;20.90;99.90
7844;DHT22;3967;48.702;9.326;2023-08-17T04:27:57;20.90;99.90
7844;DHT22;3967;48.702;9.326;2023-08-17T04:30:23;20.90;99.90
7844;DHT22;3967;48.702;9.326;2023-08-17T04:32:50;20.90;99.90
7844;DHT22;3967;48.702;9.326;2023-08-17T04:35:19;20.80;99.90
7844;DHT22;3967;48.702;9.326;2023-08-17T04:37:47;20.80;99.90
7844;DHT22;3967;48.702;9.326;2023-08-17T04:40:14;20.80;99.90
7844;DHT22;3967;48.702;9.326;2023-08-17T04:42:41;20.90;99.90
7844;DHT22;3967;48.702;9.326;2023-08-17T04:45:08;20.80;99.90
7844;DHT22;3967;48.702;9.326;2023-08-17T04:47:35;20.90;99.90
7844;DHT22;3967;48.702;9.326;2023-08-17T04:50:01;21.00;99.90
7844;DHT22;3967;48.702;9.326;2023-08-17T04:52:28;21.00;99.90
7844;DHT22;3967;48.702;9.326;2023-08-17T04:54:55;20.90;99.90
7844;DHT22;3967;48.702;9.326;2023-08-17T04:57:21;20.80;99.90
7844;DHT22;3967;48.702;9.326;2023-08-17T04:59:48;20.80;99.90
7844;DHT22;3967;48.702;9.326;2023-08-17T05:02:15;20.80;99.90
7844;DHT22;3967;48.702;9.326;2023-08-17T05:04:42;20.90;99.90
7844;DHT22;3967;48.702;9.326;2023-08-17T05:07:08;21.00;99.90
7844;DHT22;3967;48.702;9.326;2023-08-17T05:09:35;20.90;99.90
7844;DHT22;3967;48.702;9.326;2023-08-17T05:12:02;20.90;99.90
7844;DHT22;3967;48.702;9.326;2023-08-17T05:14:29;20.80;99.90
7844;DHT22;3967;48.702;9.326;2023-08-17T05:16:56;20.80;99.90
7844;DHT22;3967;48.702;9.326;2023-08-17T05:19:24;20.80;99.90
7844;DHT22;3967;48.702;9.326;2023-08-17T05:21:50;20.60;99.90
7844;DHT22;3967;48.702;9.326;2023-08-17T05:24:17;20.70;99.90
7844;DHT22;3967;48.702;9.326;2023-08-17T05:26:46;20.80;99.90
7844;DHT22;3967;48.702;9.326;2023-08-17T05:29:13;20.70;99.90
7844;DHT22;3967;48.702;9.326;2023-08-17T05:31:40;20.80;99.90
7844;DHT22;3967;48.702;9.326;2023-08-17T05:34:07;20.80;99.90
7844;DHT22;3967;48.702;9.326;2023-08-17T05:36:34;20.80;99.90
7844;DHT22;3967;48.702;9.326;2023-08-17T05:39:01;20.80;99.90
7844;DHT22;3967;48.702;9.326;2023-08-17T05:41:28;20.80;99.90
7844;DHT22;3967;48.702;9.326;2023-08-17T05:43:55;20.90;99.90
7844;DHT22;3967;48.702;9.326;2023-08-17T05:46:22;20.90;99.90
7844;DHT22;3967;48.702;9.326;2023-08-17T05:48:48;20.90;99.90
7844;DHT22;3967;48.702;9.326;2023-08-17T05:51:15;20.90;99.90
7844;DHT22;3967;48.702;9.326;2023-08-17T05:53:42;20.90;99.90
7844;DHT22;3967;48.702;9.326;2023-08-17T05:56:09;20.90;99.90
7844;DHT22;3967;48.702;9.326;2023-08-17T05:58:35;20.90;99.90
7844;DHT22;3967;48.702;9.326;2023-08-17T06:01:09;20.90;99.90
7844;DHT22;3967;48.702;9.326;2023-08-17T06:03:37;20.80;99.90
7844;DHT22;3967;48.702;9.326;2023-08-17T06:06:04;20.70;99.90
7844;DHT22;3967;48.702;9.326;2023-08-17T06:08:32;20.80;99.90
7844;DHT22;3967;48.702;9.326;2023-08-17T06:10:59;20.90;99.90
7844;DHT22;3967;48.702;9.326;2023-08-17T06:13:26;20.90;99.90
7844;DHT22;3967;48.702;9.326;2023-08-17T06:15:53;20.90;99.90
7844;DHT22;3967;48.702;9.326;2023-08-17T06:18:23;21.00;99.90
7844;DHT22;3967;48.702;9.326;2023-08-17T06:20:49;21.10;99.90
7844;DHT22;3967;48.702;9.326;2023-08-17T06:23:20;21.10;99.90
7844;DHT22;3967;48.702;9.326;2023-08-17T06:25:47;21.20;99.90
7844;DHT22;3967;48.702;9.326;2023-08-17T06:28:14;21.20;99.90
7844;DHT22;3967;48.702;9.326;2023-08-17T06:30:41;21.00;99.90
7844;DHT22;3967;48.702;9.326;2023-08-17T06:33:07;20.80;99.90
7844;DHT22;3967;48.702;9.326;2023-08-17T06:35:34;20.70;99.90
7844;DHT22;3967;48.702;9.326;2023-08-17T06:38:01;20.70;99.90
7844;DHT22;3967;48.702;9.326;2023-08-17T06:40:28;20.70;99.90
7844;DHT22;3967;48.702;9.326;2023-08-17T06:42:54;20.70;99.90
7844;DHT22;3967;48.702;9.326;2023-08-17T06:45:22;20.90;99.90
7844;DHT22;3967;48.702;9.326;2023-08-17T06:47:49;20.90;99.90
7844;DHT22;3967;48.702;9.326;2023-08-17T06:50:16;21.10;99.90
7844;DHT22;3967;48.702;9.326;2023-08-17T06:52:43;21.20;99.90
7844;DHT22;3967;48.702;9.326;2023-08-17T06:55:10;21.30;99.90
7844;DHT22;3967;48.702;9.326;2023-08-17T06:57:37;21.20;99.90
7844;DHT22;3967;48.702;9.326;2023-08-17T07:00:04;21.30;99.90
7844;DHT22;3967;48.702;9.326;2023-08-17T07:02:34;21.30;99.90
7844;DHT22;3967;48.702;9.326;2023-08-17T07:05:19;21.10;99.90
7844;DHT22;3967;48.702;9.326;2023-08-17T07:07:45;21.00;99.90
7844;DHT22;3967;48.702;9.326;2023-08-17T07:10:12;21.00;99.90
7844;DHT22;3967;48.702;9.326;2023-08-17T07:12:39;21.10;99.90
7844;DHT22;3967;48.702;9.326;2023-08-17T07:15:07;21.30;99.90
7844;DHT22;3967;48.702;9.326;2023-08-17T07:17:34;21.30;99.90
7844;DHT22;3967;48.702;9.326;2023-08-17T07:20:04;21.40;99.90
7844;DHT22;3967;48.702;9.326;2023-08-17T07:22:33;21.40;99.90
7844;DHT22;3967;48.702;9.326;2023-08-17T07:25:01;21.40;99.90
7844;DHT22;3967;48.702;9.326;2023-08-17T07:27:28;21.50;99.90
7844;DHT22;3967;48.702;9.326;2023-08-17T07:29:55;21.70;99.90
7844;DHT22;3967;48.702;9.326;2023-08-17T07:32:22;21.70;99.90
7844;DHT22;3967;48.702;9.326;2023-08-17T07:34:48;21.70;99.90
7844;DHT22;3967;48.702;9.326;2023-08-17T07:37:15;21.70;99.90
7844;DHT22;3967;48.702;9.326;2023-08-17T07:39:42;21.80;99.90
7844;DHT22;3967;48.702;9.326;2023-08-17T07:42:09;21.70;99.90
7844;DHT22;3967;48.702;9.326;2023-08-17T07:44:35;21.70;99.90
7844;DHT22;3967;48.702;9.326;2023-08-17T07:47:02;22.00;99.90
7844;DHT22;3967;48.702;9.326;2023-08-17T07:49:29;22.00;99.90
7844;DHT22;3967;48.702;9.326;2023-08-17T07:51:59;22.10;99.90
7844;DHT22;3967;48.702;9.326;2023-08-17T07:54:26;22.30;99.90
7844;DHT22;3967;48.702;9.326;2023-08-17T07:56:52;22.30;99.90
7844;DHT22;3967;48.702;9.326;2023-08-17T07:59:19;22.40;99.90
7844;DHT22;3967;48.702;9.326;2023-08-17T08:01:46;22.60;99.90
7844;DHT22;3967;48.702;9.326;2023-08-17T08:04:13;22.50;99.90
7844;DHT22;3967;48.702;9.326;2023-08-17T08:06:39;22.40;99.90
7844;DHT22;3967;48.702;9.326;2023-08-17T08:09:06;22.00;99.90
7844;DHT22;3967;48.702;9.326;2023-08-17T08:11:33;22.30;99.90
7844;DHT22;3967;48.702;9.326;2023-08-17T08:14:00;22.60;99.90
7844;DHT22;3967;48.702;9.326;2023-08-17T08:16:28;22.70;99.90
7844;DHT22;3967;48.702;9.326;2023-08-17T08:18:57;22.80;99.90
7844;DHT22;3967;48.702;9.326;2023-08-17T08:21:24;22.80;99.90
7844;DHT22;3967;48.702;9.326;2023-08-17T08:23:50;22.70;99.90
7844;DHT22;3967;48.702;9.326;2023-08-17T08:26:17;22.80;99.90
7844;DHT22;3967;48.702;9.326;2023-08-17T08:28:44;22.90;99.90
7844;DHT22;3967;48.702;9.326;2023-08-17T08:31:11;23.10;99.90
7844;DHT22;3967;48.702;9.326;2023-08-17T08:33:38;23.30;99.90
7844;DHT22;3967;48.702;9.326;2023-08-17T08:36:04;23.60;99.90
7844;DHT22;3967;48.702;9.326;2023-08-17T08:38:32;23.70;99.90
7844;DHT22;3967;48.702;9.326;2023-08-17T08:40:59;23.80;99.90
7844;DHT22;3967;48.702;9.326;2023-08-17T08:43:27;23.80;99.90
7844;DHT22;3967;48.702;9.326;2023-08-17T08:45:54;24.10;99.90
7844;DHT22;3967;48.702;9.326;2023-08-17T08:48:22;24.00;99.90
7844;DHT22;3967;48.702;9.326;2023-08-17T08:50:54;24.30;99.90
7844;DHT22;3967;48.702;9.326;2023-08-17T08:53:31;24.50;99.90
7844;DHT22;3967;48.702;9.326;2023-08-17T08:56:03;24.80;99.90
7844;DHT22;3967;48.702;9.326;2023-08-17T08:58:31;24.90;99.90
7844;DHT22;3967;48.702;9.326;2023-08-17T09:01:00;24.70;99.90
7844;DHT22;3967;48.702;9.326;2023-08-17T09:03:27;24.70;99.90
7844;DHT22;3967;48.702;9.326;2023-08-17T09:05:55;24.90;99.90
7844;DHT22;3967;48.702;9.326;2023-08-17T09:08:28;25.10;99.90
7844;DHT22;3967;48.702;9.326;2023-08-17T09:10:55;25.20;99.90
7844;DHT22;3967;48.702;9.326;2023-08-17T09:13:22;25.20;99.90
7844;DHT22;3967;48.702;9.326;2023-08-17T09:15:49;25.30;99.90
7844;DHT22;3967;48.702;9.326;2023-08-17T09:18:16;25.40;99.90
7844;DHT22;3967;48.702;9.326;2023-08-17T09:20:45;25.40;99.90
7844;DHT22;3967;48.702;9.326;2023-08-17T09:23:16;25.50;99.90
7844;DHT22;3967;48.702;9.326;2023-08-17T09:25:45;25.50;99.90
7844;DHT22;3967;48.702;9.326;2023-08-17T09:28:14;25.50;99.90
7844;DHT22;3967;48.702;9.326;2023-08-17T09:33:28;25.70;99.90
7844;DHT22;3967;48.702;9.326;2023-08-17T09:35:57;25.80;99.90
7844;DHT22;3967;48.702;9.326;2023-08-17T09:38:25;26.00;99.90
7844;DHT22;3967;48.702;9.326;2023-08-17T09:40:53;26.10;99.90
7844;DHT22;3967;48.702;9.326;2023-08-17T09:43:20;26.10;99.90
7844;DHT22;3967;48.702;9.326;2023-08-17T09:45:48;26.10;99.70
7844;DHT22;3967;48.702;9.326;2023-08-17T09:48:17;26.00;99.90
7844;DHT22;3967;48.702;9.326;2023-08-17T09:50:45;26.20;99.80
7844;DHT22;3967;48.702;9.326;2023-08-17T09:53:17;26.20;99.70
7844;DHT22;3967;48.702;9.326;2023-08-17T09:55:45;26.20;99.50
7844;DHT22;3967;48.702;9.326;2023-08-17T09:58:13;26.50;98.60
7844;DHT22;3967;48.702;9.326;2023-08-17T10:00:47;26.60;98.40
7844;DHT22;3967;48.702;9.326;2023-08-17T10:03:18;26.80;98.40
7844;DHT22;3967;48.702;9.326;2023-08-17T10:05:52;26.90;96.50
7844;DHT22;3967;48.702;9.326;2023-08-17T10:08:21;26.70;96.40
7844;DHT22;3967;48.702;9.326;2023-08-17T10:10:49;27.00;96.90
7844;DHT22;3967;48.702;9.326;2023-08-17T10:16:03;27.10;96.30
7844;DHT22;3967;48.702;9.326;2023-08-17T10:21:18;27.60;95.60
7844;DHT22;3967;48.702;9.326;2023-08-17T10:23:47;27.50;95.90
7844;DHT22;3967;48.702;9.326;2023-08-17T10:26:14;27.80;96.00
7844;DHT22;3967;48.702;9.326;2023-08-17T10:28:41;28.00;95.90
7844;DHT22;3967;48.702;9.326;2023-08-17T10:31:09;28.10;94.90
7844;DHT22;3967;48.702;9.326;2023-08-17T10:33:37;28.20;94.30
7844;DHT22;3967;48.702;9.326;2023-08-17T10:36:08;28.40;95.10
7844;DHT22;3967;48.702;9.326;2023-08-17T10:38:34;28.20;94.60
7844;DHT22;3967;48.702;9.326;2023-08-17T10:41:12;28.10;94.60
7844;DHT22;3967;48.702;9.326;2023-08-17T10:46:31;28.50;94.90
7844;DHT22;3967;48.702;9.326;2023-08-17T10:49:02;28.30;94.50
7844;DHT22;3967;48.702;9.326;2023-08-17T10:51:29;28.40;95.20
7844;DHT22;3967;48.702;9.326;2023-08-17T10:53:59;28.40;94.00
7844;DHT22;3967;48.702;9.326;2023-08-17T10:56:29;28.20;95.10
7844;DHT22;3967;48.702;9.326;2023-08-17T10:59:02;28.40;95.10
7844;DHT22;3967;48.702;9.326;2023-08-17T11:01:36;28.60;94.60
7844;DHT22;3967;48.702;9.326;2023-08-17T11:04:15;28.60;92.70
7844;DHT22;3967;48.702;9.326;2023-08-17T11:06:44;28.70;92.70
7844;DHT22;3967;48.702;9.326;2023-08-17T11:09:10;28.70;91.50
7844;DHT22;3967;48.702;9.326;2023-08-17T11:11:38;28.70;91.60
7844;DHT22;3967;48.702;9.326;2023-08-17T11:14:05;28.60;92.40
7844;DHT22;3967;48.702;9.326;2023-08-17T11:16:31;28.80;91.80
7844;DHT22;3967;48.702;9.326;2023-08-17T11:19:00;28.70;92.40
7844;DHT22;3967;48.702;9.326;2023-08-17T11:21:27;28.90;90.50
7844;DHT22;3967;48.702;9.326;2023-08-17T11:23:55;29.00;88.90
7844;DHT22;3967;48.702;9.326;2023-08-17T11:26:23;29.20;90.30
7844;DHT22;3967;48.702;9.326;2023-08-17T11:28:50;29.20;86.50
7844;DHT22;3967;48.702;9.326;2023-08-17T11:31:17;29.20;87.80
7844;DHT22;3967;48.702;9.326;2023-08-17T11:33:44;29.30;85.10
7844;DHT22;3967;48.702;9.326;2023-08-17T11:36:13;29.30;84.50
7844;DHT22;3967;48.702;9.326;2023-08-17T11:38:42;29.30;85.40
7844;DHT22;3967;48.702;9.326;2023-08-17T11:41:11;29.60;80.60
7844;DHT22;3967;48.702;9.326;2023-08-17T11:43:41;29.60;84.50
7844;DHT22;3967;48.702;9.326;2023-08-17T11:46:08;29.60;84.50
7844;DHT22;3967;48.702;9.326;2023-08-17T11:48:36;29.90;85.20
7844;DHT22;3967;48.702;9.326;2023-08-17T11:51:03;29.90;84.80
7844;DHT22;3967;48.702;9.326;2023-08-17T11:53:37;29.70;84.20
7844;DHT22;3967;48.702;9.326;2023-08-17T11:56:08;29.80;83.80
7844;DHT22;3967;48.702;9.326;2023-08-17T11:58:46;29.80;85.10
7844;DHT22;3967;48.702;9.326;2023-08-17T12:01:14;29.90;82.10
7844;DHT22;3967;48.702;9.326;2023-08-17T12:03:44;30.00;83.80
7844;DHT22;3967;48.702;9.326;2023-08-17T12:06:11;30.10;84.20
7844;DHT22;3967;48.702;9.326;2023-08-17T12:08:45;30.00;84.70
7844;DHT22;3967;48.702;9.326;2023-08-17T12:11:16;29.90;83.10
7844;DHT22;3967;48.702;9.326;2023-08-17T12:13:52;30.10;85.10
7844;DHT22;3967;48.702;9.326;2023-08-17T12:16:20;30.00;83.30
7844;DHT22;3967;48.702;9.326;2023-08-17T12:18:51;30.10;81.90
7844;DHT22;3967;48.702;9.326;2023-08-17T12:21:25;30.00;83.30
7844;DHT22;3967;48.702;9.326;2023-08-17T12:23:52;30.00;83.00
7844;DHT22;3967;48.702;9.326;2023-08-17T12:26:20;29.90;84.20
7844;DHT22;3967;48.702;9.326;2023-08-17T12:28:47;30.00;83.60
7844;DHT22;3967;48.702;9.326;2023-08-17T12:31:21;30.10;84.50
7844;DHT22;3967;48.702;9.326;2023-08-17T12:33:48;30.10;83.50
7844;DHT22;3967;48.702;9.326;2023-08-17T12:36:14;30.00;83.10
7844;DHT22;3967;48.702;9.326;2023-08-17T12:38:41;29.90;82.90
7844;DHT22;3967;48.702;9.326;2023-08-17T12:41:11;30.00;84.30
7844;DHT22;3967;48.702;9.326;2023-08-17T12:43:38;29.90;87.10
7844;DHT22;3967;48.702;9.326;2023-08-17T12:46:05;29.70;87.60
7844;DHT22;3967;48.702;9.326;2023-08-17T12:48:31;29.60;88.70
7844;DHT22;3967;48.702;9.326;2023-08-17T12:51:02;29.40;89.70
7844;DHT22;3967;48.702;9.326;2023-08-17T12:53:31;29.20;90.00
7844;DHT22;3967;48.702;9.326;2023-08-17T12:55:58;29.20;90.40
7844;DHT22;3967;48.702;9.326;2023-08-17T12:58:25;29.20;90.90
7844;DHT22;3967;48.702;9.326;2023-08-17T13:00:51;29.20;91.40
7844;DHT22;3967;48.702;9.326;2023-08-17T13:03:21;29.10;91.40
7844;DHT22;3967;48.702;9.326;2023-08-17T13:05:47;29.20;91.50
7844;DHT22;3967;48.702;9.326;2023-08-17T13:08:14;28.90;91.50
7844;DHT22;3967;48.702;9.326;2023-08-17T13:10:41;28.70;91.20
7844;DHT22;3967;48.702;9.326;2023-08-17T13:13:08;28.60;91.40
7844;DHT22;3967;48.702;9.326;2023-08-17T13:15:36;28.50;91.60
7844;DHT22;3967;48.702;9.326;2023-08-17T13:18:03;28.50;91.80
7844;DHT22;3967;48.702;9.326;2023-08-17T13:20:30;28.40;92.30
7844;DHT22;3967;48.702;9.326;2023-08-17T13:22:57;28.40;93.10
7844;DHT22;3967;48.702;9.326;2023-08-17T13:25:24;28.30;93.30
7844;DHT22;3967;48.702;9.326;2023-08-17T13:27:51;28.20;93.90
7844;DHT22;3967;48.702;9.326;2023-08-17T13:30:17;28.10;94.20
7844;DHT22;3967;48.702;9.326;2023-08-17T13:32:44;28.10;94.30
7844;DHT22;3967;48.702;9.326;2023-08-17T13:35:13;28.30;94.40
7844;DHT22;3967;48.702;9.326;2023-08-17T13:37:40;28.40;94.20
7844;DHT22;3967;48.702;9.326;2023-08-17T13:40:08;28.20;94.20
7844;DHT22;3967;48.702;9.326;2023-08-17T13:42:35;28.10;94.40
7844;DHT22;3967;48.702;9.326;2023-08-17T13:45:03;28.00;95.10
7844;DHT22;3967;48.702;9.326;2023-08-17T13:47:30;27.90;95.20
7844;DHT22;3967;48.702;9.326;2023-08-17T13:49:57;28.00;94.50
7844;DHT22;3967;48.702;9.326;2023-08-17T13:52:25;28.10;94.70
7844;DHT22;3967;48.702;9.326;2023-08-17T13:54:52;28.00;95.10
7844;DHT22;3967;48.702;9.326;2023-08-17T13:57:19;27.90;95.70
7844;DHT22;3967;48.702;9.326;2023-08-17T13:59:46;27.90;95.80
7844;DHT22;3967;48.702;9.326;2023-08-17T14:02:12;27.70;96.10
7844;DHT22;3967;48.702;9.326;2023-08-17T14:04:39;27.70;96.60
7844;DHT22;3967;48.702;9.326;2023-08-17T14:07:06;27.70;96.60
7844;DHT22;3967;48.702;9.326;2023-08-17T14:09:33;27.70;97.00
7844;DHT22;3967;48.702;9.326;2023-08-17T14:11:59;27.80;96.80
7844;DHT22;3967;48.702;9.326;2023-08-17T14:14:28;27.70;96.70
7844;DHT22;3967;48.702;9.326;2023-08-17T14:16:55;27.50;97.50
7844;DHT22;3967;48.702;9.326;2023-08-17T14:19:22;27.50;97.50
7844;DHT22;3967;48.702;9.326;2023-08-17T14:21:49;27.20;98.10
7844;DHT22;3967;48.702;9.326;2023-08-17T14:24:15;27.20;98.60
7844;DHT22;3967;48.702;9.326;2023-08-17T14:26:43;27.10;99.00
7844;DHT22;3967;48.702;9.326;2023-08-17T14:29:09;27.10;99.20
7844;DHT22;3967;48.702;9.326;2023-08-17T14:31:36;27.20;99.20
7844;DHT22;3967;48.702;9.326;2023-08-17T14:34:03;27.00;99.10
7844;DHT22;3967;48.702;9.326;2023-08-17T14:36:32;27.00;99.60
7844;DHT22;3967;48.702;9.326;2023-08-17T14:38:59;27.10;99.30
7844;DHT22;3967;48.702;9.326;2023-08-17T14:41:26;27.00;99.40
7844;DHT22;3967;48.702;9.326;2023-08-17T14:44:01;26.80;99.90
7844;DHT22;3967;48.702;9.326;2023-08-17T14:46:29;26.70;99.90
7844;DHT22;3967;48.702;9.326;2023-08-17T14:48:56;26.70;99.90
7844;DHT22;3967;48.702;9.326;2023-08-17T14:51:24;26.90;99.90
7844;DHT22;3967;48.702;9.326;2023-08-17T14:53:57;26.90;99.90
7844;DHT22;3967;48.702;9.326;2023-08-17T14:56:23;26.80;99.90
7844;DHT22;3967;48.702;9.326;2023-08-17T14:58:50;26.80;99.90
7844;DHT22;3967;48.702;9.326;2023-08-17T15:01:17;26.90;99.90
7844;DHT22;3967;48.702;9.326;2023-08-17T15:03:44;26.80;99.90
7844;DHT22;3967;48.702;9.326;2023-08-17T15:06:13;26.90;99.90
7844;DHT22;3967;48.702;9.326;2023-08-17T15:08:57;26.80;99.90
7844;DHT22;3967;48.702;9.326;2023-08-17T15:11:24;26.70;99.90
7844;DHT22;3967;48.702;9.326;2023-08-17T15:13:51;26.70;99.90
7844;DHT22;3967;48.702;9.326;2023-08-17T15:16:17;26.60;99.90
7844;DHT22;3967;48.702;9.326;2023-08-17T15:18:51;26.60;99.90
7844;DHT22;3967;48.702;9.326;2023-08-17T15:21:18;26.40;99.90
7844;DHT22;3967;48.702;9.326;2023-08-17T15:23:45;26.50;99.90
7844;DHT22;3967;48.702;9.326;2023-08-17T15:26:12;26.60;99.90
7844;DHT22;3967;48.702;9.326;2023-08-17T15:28:40;26.80;99.90
7844;DHT22;3967;48.702;9.326;2023-08-17T15:31:07;26.80;99.90
7844;DHT22;3967;48.702;9.326;2023-08-17T15:33:40;26.80;99.90
7844;DHT22;3967;48.702;9.326;2023-08-17T15:36:07;27.00;99.90
7844;DHT22;3967;48.702;9.326;2023-08-17T15:38:34;27.10;99.90
7844;DHT22;3967;48.702;9.326;2023-08-17T15:41:01;27.00;99.90
7844;DHT22;3967;48.702;9.326;2023-08-17T15:43:27;27.00;99.90
7844;DHT22;3967;48.702;9.326;2023-08-17T15:45:54;27.10;99.90
7844;DHT22;3967;48.702;9.326;2023-08-17T15:48:21;27.00;99.90
7844;DHT22;3967;48.702;9.326;2023-08-17T15:50:48;26.90;99.90
7844;DHT22;3967;48.702;9.326;2023-08-17T15:53:14;27.00;99.90
7844;DHT22;3967;48.702;9.326;2023-08-17T15:55:41;27.00;99.90
7844;DHT22;3967;48.702;9.326;2023-08-17T15:58:08;26.90;99.90
7844;DHT22;3967;48.702;9.326;2023-08-17T16:00:36;26.90;99.90
7844;DHT22;3967;48.702;9.326;2023-08-17T16:03:03;27.00;99.90
7844;DHT22;3967;48.702;9.326;2023-08-17T16:05:30;27.00;99.90
7844;DHT22;3967;48.702;9.326;2023-08-17T16:07:57;27.00;99.90
7844;DHT22;3967;48.702;9.326;2023-08-17T16:10:24;27.00;99.90
7844;DHT22;3967;48.702;9.326;2023-08-17T16:12:51;27.10;99.90
7844;DHT22;3967;48.702;9.326;2023-08-17T16:15:18;27.10;99.90
7844;DHT22;3967;48.702;9.326;2023-08-17T16:17:45;27.10;99.90
7844;DHT22;3967;48.702;9.326;2023-08-17T16:20:12;27.20;99.90
7844;DHT22;3967;48.702;9.326;2023-08-17T16:22:39;27.10;99.90
7844;DHT22;3967;48.702;9.326;2023-08-17T16:25:06;27.10;99.90